Decoded Metar for GCFV (FUERTEVENTURA in SPAIN) (IATA:FUE) | Meteo·Mobile Aviation Weather
aviador You're here:

GCFV Decoded Metar

FUERTEVENTURA in SPAIN
Report Time2019-09-17 00:30:00
UTC Time2019-09-17 00:59:01
Flight Rules mvfr MVFR
Wind010° at 05 kt
W.Decomp.*RWY 01: 5.0 kt HW 0.4 kt RCW
Visibility9999 m
Phenomena:N/A
Clouds:Scattered 008 Hf
Broken 012 Hf
Expected CloudBase > 800 ft AGL from Temp-Dew spread
Ceiling1,200 ft
Temp23°C (ISA +8)
Dew Point21°C (89% RH)
QNH1017 hPa
Density Alt1,214 ft
Elevation75 ft
Report Wrong Elevation
Raw Report
GCFV 170030Z AUTO 01005KT 9999 SCT008 BKN012 23/21 Q1017=

Extra information for GCFV:More info

Metar Taf Metar & Taf Last 4 Metars F.Rules Stats Wind Profile Meteogram Temp Stats Airport Information Weather charts Add Link Nearby VenuesMetar ALERT Operation Metar Decoded Social comments